createdAt,value
2023-04-03T00:00:43.902Z,6.45
2023-04-03T00:03:19.234Z,6.54
2023-04-03T00:05:47.440Z,6.66
2023-04-03T00:08:14.621Z,6.65
2023-04-03T00:10:42.150Z,6.62
2023-04-03T00:13:10.021Z,6.59
2023-04-03T00:15:37.966Z,6.49
2023-04-03T00:18:05.769Z,6.48
2023-04-03T00:20:33.125Z,6.49
2023-04-03T00:23:00.873Z,6.57
2023-04-03T00:25:27.681Z,6.46
2023-04-03T00:27:55.122Z,6.31
2023-04-03T00:30:24.196Z,6.29
2023-04-03T00:32:53.208Z,6.20
2023-04-03T00:35:22.520Z,6.19
2023-04-03T00:37:53.714Z,6.25
2023-04-03T00:40:22.170Z,6.36
2023-04-03T00:42:52.653Z,6.32
2023-04-03T00:45:25.741Z,6.30
2023-04-03T00:47:52.963Z,6.31
2023-04-03T00:50:20.379Z,6.37
2023-04-03T00:52:50.035Z,6.30
2023-04-03T00:55:17.513Z,6.22
2023-04-03T00:57:46.839Z,6.27
2023-04-03T01:00:17.178Z,6.30
2023-04-03T01:02:45.904Z,6.26
2023-04-03T01:05:13.949Z,6.24
2023-04-03T01:07:41.254Z,6.18
2023-04-03T01:10:11.691Z,6.20
2023-04-03T01:12:41.310Z,5.96
2023-04-03T01:15:21.722Z,5.96
2023-04-03T01:17:53.715Z,6.13
2023-04-03T01:20:48.095Z,6.07
2023-04-03T01:23:30.212Z,6.00
2023-04-03T01:25:58.598Z,5.91
2023-04-03T01:28:25.707Z,5.88
2023-04-03T01:31:03.806Z,5.82
2023-04-03T01:33:31.203Z,5.87
2023-04-03T01:35:58.357Z,5.89
2023-04-03T01:38:25.450Z,5.83
2023-04-03T01:40:52.242Z,5.81
2023-04-03T01:43:19.481Z,5.74
2023-04-03T01:45:47.525Z,5.73
2023-04-03T01:48:14.723Z,5.74
2023-04-03T01:50:41.480Z,5.76
2023-04-03T01:53:08.950Z,5.83
2023-04-03T01:55:35.880Z,5.77
2023-04-03T01:58:02.943Z,5.79
2023-04-03T02:00:29.834Z,5.83
2023-04-03T02:02:57.827Z,5.70
2023-04-03T02:05:24.786Z,5.62
2023-04-03T02:07:51.874Z,5.56
2023-04-03T02:10:18.646Z,5.63
2023-04-03T02:12:46.277Z,5.54
2023-04-03T02:15:13.043Z,5.46
2023-04-03T02:17:40.138Z,5.59
2023-04-03T02:20:07.643Z,5.62
2023-04-03T02:22:34.852Z,5.58
2023-04-03T02:25:01.996Z,5.58
2023-04-03T02:27:29.061Z,5.49
2023-04-03T02:29:55.811Z,5.45
2023-04-03T02:32:22.910Z,5.52
2023-04-03T02:34:49.778Z,5.36
2023-04-03T02:37:16.890Z,5.31
2023-04-03T02:39:43.710Z,5.24
2023-04-03T02:42:11.433Z,5.17
2023-04-03T02:44:38.260Z,5.13
2023-04-03T02:47:05.599Z,5.13
2023-04-03T02:49:32.775Z,5.09
2023-04-03T02:51:59.958Z,5.06
2023-04-03T02:54:29.657Z,5.10
2023-04-03T02:56:57.026Z,5.19
2023-04-03T02:59:23.858Z,5.14
2023-04-03T03:01:50.969Z,5.14
2023-04-03T03:04:17.737Z,5.06
2023-04-03T03:06:45.087Z,5.03
2023-04-03T03:09:11.923Z,4.96
2023-04-03T03:11:38.978Z,5.08
2023-04-03T03:14:06.297Z,5.15
2023-04-03T03:16:33.387Z,5.08
2023-04-03T03:19:00.693Z,4.99
2023-04-03T03:21:27.854Z,5.01
2023-04-03T03:23:54.633Z,4.98
2023-04-03T03:26:21.936Z,4.97
2023-04-03T03:28:48.684Z,4.90
2023-04-03T03:31:16.327Z,4.85
2023-04-03T03:33:43.196Z,4.85
2023-04-03T03:36:10.614Z,4.80
2023-04-03T03:38:37.846Z,4.83
2023-04-03T03:41:04.936Z,4.78
2023-04-03T03:43:31.679Z,4.81
2023-04-03T03:45:58.847Z,4.74
2023-04-03T03:48:25.805Z,4.73
2023-04-03T03:50:52.914Z,4.69
2023-04-03T03:53:20.340Z,4.53
2023-04-03T03:55:47.376Z,4.59
2023-04-03T03:58:14.123Z,4.54
2023-04-03T04:00:41.481Z,4.40
2023-04-03T04:03:08.289Z,4.40
2023-04-03T04:05:35.739Z,4.26
2023-04-03T04:08:02.814Z,4.34
2023-04-03T04:10:29.877Z,4.38
2023-04-03T04:12:58.501Z,4.35
2023-04-03T04:15:26.784Z,4.34
2023-04-03T04:17:54.452Z,4.26
2023-04-03T04:20:21.863Z,4.31
2023-04-03T04:22:48.647Z,4.28
2023-04-03T04:25:16.189Z,4.21
2023-04-03T04:27:43.157Z,4.24
2023-04-03T04:30:11.793Z,4.13
2023-04-03T04:32:38.695Z,4.05
2023-04-03T04:35:06.677Z,3.97
2023-04-03T04:37:33.630Z,3.87
2023-04-03T04:40:00.933Z,3.84
2023-04-03T04:42:27.815Z,3.81
2023-04-03T04:44:54.867Z,3.74
2023-04-03T04:47:21.716Z,3.89
2023-04-03T04:49:48.805Z,3.96
2023-04-03T04:52:16.090Z,4.01
2023-04-03T04:54:43.163Z,4.08
2023-04-03T04:57:10.055Z,4.11
2023-04-03T04:59:37.148Z,4.09
2023-04-03T05:02:04.045Z,4.06
2023-04-03T05:04:31.362Z,4.20
2023-04-03T05:06:58.112Z,4.20
2023-04-03T05:09:25.190Z,4.11
2023-04-03T05:11:54.440Z,4.26
2023-04-03T05:14:21.582Z,4.24
2023-04-03T05:16:50.298Z,4.24
2023-04-03T05:19:18.544Z,4.30
2023-04-03T05:21:45.359Z,4.34
2023-04-03T05:24:12.474Z,4.26
2023-04-03T05:26:39.624Z,4.24
2023-04-03T05:29:06.838Z,4.26
2023-04-03T05:31:33.602Z,4.32
2023-04-03T05:34:00.739Z,4.44
2023-04-03T05:36:27.717Z,4.51
2023-04-03T05:38:57.513Z,4.47
2023-04-03T05:41:24.824Z,4.49
2023-04-03T05:43:51.946Z,4.36
2023-04-03T05:46:21.652Z,4.33
2023-04-03T05:48:48.856Z,4.37
2023-04-03T05:51:29.181Z,4.37
2023-04-03T05:54:07.384Z,4.38
2023-04-03T05:56:34.194Z,4.45
2023-04-03T05:59:01.320Z,4.51
2023-04-03T06:01:28.108Z,4.60
2023-04-03T06:03:55.741Z,4.60
2023-04-03T06:06:23.180Z,4.68
2023-04-03T06:08:50.394Z,4.78
2023-04-03T06:11:17.556Z,4.81
2023-04-03T06:13:44.673Z,4.76
2023-04-03T06:16:16.483Z,4.83
2023-04-03T06:18:43.602Z,5.11
2023-04-03T06:21:10.421Z,5.30
2023-04-03T06:23:37.694Z,5.57
2023-04-03T06:26:04.475Z,5.68
2023-04-03T06:28:31.542Z,5.83
2023-04-03T06:30:58.306Z,5.97
2023-04-03T06:33:25.475Z,6.08
2023-04-03T06:35:58.938Z,6.31
2023-04-03T06:38:26.023Z,6.64
2023-04-03T06:40:53.164Z,6.57
2023-04-03T06:43:20.544Z,6.62
2023-04-03T06:45:47.806Z,6.53
2023-04-03T06:48:14.991Z,6.56
2023-04-03T06:50:42.245Z,6.56
2023-04-03T06:53:10.088Z,6.81
2023-04-03T06:55:37.888Z,7.09
2023-04-03T06:58:05.501Z,7.38
2023-04-03T07:00:32.337Z,7.51
2023-04-03T07:02:59.558Z,7.26
2023-04-03T07:05:27.111Z,7.27
2023-04-03T07:07:54.532Z,7.35
2023-04-03T07:10:21.537Z,7.34
2023-04-03T07:12:48.686Z,7.36
2023-04-03T07:15:15.754Z,7.34
2023-04-03T07:17:42.962Z,7.42
2023-04-03T07:20:10.520Z,7.52
2023-04-03T07:22:40.653Z,7.58
2023-04-03T07:25:08.276Z,7.80
2023-04-03T07:27:35.573Z,7.85
2023-04-03T07:30:05.026Z,8.03
2023-04-03T07:32:32.126Z,8.07
2023-04-03T07:34:59.002Z,8.23
2023-04-03T07:37:26.227Z,7.92
2023-04-03T07:39:53.213Z,7.80
2023-04-03T07:42:20.518Z,7.91
2023-04-03T07:44:47.459Z,8.12
2023-04-03T07:47:17.275Z,8.13
2023-04-03T07:49:44.749Z,8.14
2023-04-03T07:52:11.826Z,8.27
2023-04-03T07:54:38.717Z,8.30
2023-04-03T07:57:06.160Z,8.28
2023-04-03T07:59:33.001Z,8.35
2023-04-03T08:02:00.182Z,8.31
2023-04-03T08:04:27.292Z,8.18
2023-04-03T08:06:54.444Z,8.38
2023-04-03T08:09:21.338Z,8.38
2023-04-03T08:11:48.609Z,8.44
2023-04-03T08:14:19.556Z,8.64
2023-04-03T08:16:48.770Z,8.74
2023-04-03T08:19:26.294Z,8.77
2023-04-03T08:21:58.606Z,8.90
2023-04-03T08:24:26.322Z,9.06
2023-04-03T08:26:53.373Z,9.17
2023-04-03T08:29:20.466Z,9.28
2023-04-03T08:31:47.828Z,9.11
2023-04-03T08:34:15.788Z,9.15
2023-04-03T08:36:43.576Z,9.33
2023-04-03T08:39:11.147Z,9.51
2023-04-03T08:41:47.957Z,9.61
2023-04-03T08:44:35.726Z,9.81
2023-04-03T08:47:48.361Z,9.79
2023-04-03T08:50:19.493Z,9.72
2023-04-03T08:52:53.656Z,9.93
2023-04-03T08:55:25.570Z,10.75
2023-04-03T08:58:02.156Z,11.41
2023-04-03T09:00:35.629Z,11.84
2023-04-03T09:03:03.100Z,11.93
2023-04-03T09:05:32.972Z,11.41
2023-04-03T09:08:07.804Z,11.92
2023-04-03T09:10:38.752Z,12.04
2023-04-03T09:13:21.057Z,12.38
2023-04-03T09:15:48.216Z,12.14
2023-04-03T09:18:22.025Z,11.45
2023-04-03T09:20:57.921Z,11.45
2023-04-03T09:23:56.863Z,11.29
2023-04-03T09:26:45.950Z,10.90
2023-04-03T09:29:19.750Z,10.87
2023-04-03T09:31:49.381Z,11.03
2023-04-03T09:34:25.363Z,11.22
2023-04-03T09:36:54.868Z,10.87
2023-04-03T09:39:25.240Z,11.01
2023-04-03T09:42:20.275Z,10.77
2023-04-03T09:44:57.456Z,10.60
2023-04-03T09:47:30.382Z,11.34
2023-04-03T09:50:15.649Z,11.66
2023-04-03T09:52:44.986Z,11.53
2023-04-03T09:55:22.736Z,11.09
2023-04-03T09:57:52.384Z,11.21
2023-04-03T10:00:29.198Z,11.01
2023-04-03T10:02:57.321Z,10.82
2023-04-03T10:05:41.070Z,10.71
2023-04-03T10:08:13.983Z,10.62
2023-04-03T10:10:49.009Z,10.70
2023-04-03T10:13:22.335Z,10.65
2023-04-03T10:15:57.288Z,10.53
2023-04-03T10:18:35.772Z,10.62
2023-04-03T10:21:30.393Z,10.66
2023-04-03T10:24:02.905Z,10.85
2023-04-03T10:26:51.124Z,11.05
2023-04-03T10:29:52.162Z,11.36
2023-04-03T10:32:40.374Z,11.00
2023-04-03T10:35:14.061Z,10.94
2023-04-03T10:37:54.780Z,10.81
2023-04-03T10:40:41.946Z,10.68
2023-04-03T10:43:17.848Z,10.54
2023-04-03T10:46:22.122Z,10.43
2023-04-03T10:49:08.299Z,10.39
2023-04-03T10:51:45.082Z,10.42
2023-04-03T10:54:25.441Z,10.24
2023-04-03T10:57:01.338Z,10.06
2023-04-03T10:59:56.447Z,10.25
2023-04-03T11:02:32.690Z,10.48
2023-04-03T11:05:10.787Z,10.59
2023-04-03T11:07:47.811Z,10.54
2023-04-03T11:10:41.520Z,10.48
2023-04-03T11:13:24.064Z,10.67
2023-04-03T11:15:53.929Z,10.66
2023-04-03T11:18:27.901Z,10.78
2023-04-03T11:21:05.015Z,10.71
2023-04-03T11:23:48.789Z,10.74
2023-04-03T11:26:20.041Z,10.90
2023-04-03T11:28:47.358Z,10.82
2023-04-03T11:31:28.783Z,10.81
2023-04-03T11:34:20.258Z,10.89
2023-04-03T11:36:51.332Z,11.02
2023-04-03T11:39:29.605Z,10.93
2023-04-03T11:42:06.925Z,10.74
2023-04-03T11:44:40.028Z,10.81
2023-04-03T11:47:09.854Z,10.77
2023-04-03T11:50:03.674Z,10.70
2023-04-03T11:52:42.250Z,10.65
2023-04-03T11:55:22.377Z,10.58
2023-04-03T11:57:58.832Z,10.68
2023-04-03T12:00:44.457Z,10.73
2023-04-03T12:03:27.556Z,10.59
2023-04-03T12:06:15.417Z,10.51
2023-04-03T12:08:46.189Z,10.41
2023-04-03T12:11:13.042Z,10.46
2023-04-03T12:14:05.500Z,10.48
2023-04-03T12:16:45.828Z,10.57
2023-04-03T12:19:15.888Z,10.45
2023-04-03T12:21:57.865Z,10.40
2023-04-03T12:24:29.369Z,10.45
2023-04-03T12:27:02.713Z,10.39
2023-04-03T12:29:33.383Z,10.44
2023-04-03T12:32:37.643Z,10.45
2023-04-03T12:35:23.309Z,10.47
2023-04-03T12:38:02.054Z,10.57
2023-04-03T12:40:44.068Z,10.65
2023-04-03T12:43:49.364Z,10.76
2023-04-03T12:46:20.042Z,10.70
2023-04-03T12:48:49.814Z,10.61
2023-04-03T12:51:21.773Z,10.81
2023-04-03T12:53:52.586Z,10.72
2023-04-03T12:56:27.428Z,10.76
2023-04-03T12:58:58.289Z,10.92
2023-04-03T13:01:26.809Z,10.73
2023-04-03T13:03:56.727Z,10.62
2023-04-03T13:06:28.412Z,10.67
2023-04-03T13:08:58.195Z,10.78
2023-04-03T13:11:28.074Z,11.77
2023-04-03T13:14:21.063Z,12.73
2023-04-03T13:17:16.488Z,12.26
2023-04-03T13:19:48.849Z,11.93
2023-04-03T13:22:40.042Z,11.56
2023-04-03T13:25:11.929Z,11.46
2023-04-03T13:27:40.456Z,11.40
2023-04-03T13:30:19.756Z,11.45
2023-04-03T13:32:46.869Z,11.62
2023-04-03T13:35:35.259Z,11.68
2023-04-03T13:38:27.033Z,11.70
2023-04-03T13:40:57.214Z,11.26
2023-04-03T13:43:36.464Z,11.36
2023-04-03T13:46:06.536Z,11.53
2023-04-03T13:48:43.503Z,11.38
2023-04-03T13:51:13.195Z,11.67
2023-04-03T13:53:51.116Z,11.53
2023-04-03T13:56:30.772Z,11.57
2023-04-03T13:59:20.887Z,11.77
2023-04-03T14:02:07.843Z,11.91
2023-04-03T14:04:50.344Z,11.83
2023-04-03T14:07:19.148Z,11.84
2023-04-03T14:09:46.213Z,12.44
2023-04-03T14:12:38.306Z,15.11
2023-04-03T14:15:27.344Z,16.07
2023-04-03T14:17:54.376Z,14.68
2023-04-03T14:20:24.768Z,14.55
2023-04-03T14:22:52.320Z,14.30
2023-04-03T14:25:20.822Z,13.74
2023-04-03T14:27:50.746Z,13.36
2023-04-03T14:30:27.350Z,12.85
2023-04-03T14:32:54.806Z,12.65
2023-04-03T14:35:22.308Z,12.42
2023-04-03T14:37:49.906Z,12.17
2023-04-03T14:40:21.799Z,11.74
2023-04-03T14:42:49.840Z,11.69
2023-04-03T14:45:18.057Z,11.40
2023-04-03T14:47:53.384Z,11.22
2023-04-03T14:50:24.370Z,11.27
2023-04-03T14:52:54.684Z,11.18
2023-04-03T14:55:24.041Z,11.13
2023-04-03T14:57:50.933Z,11.01
2023-04-03T15:00:21.495Z,10.97
2023-04-03T15:02:49.615Z,10.90
2023-04-03T15:05:16.905Z,10.85
2023-04-03T15:07:54.883Z,10.73
2023-04-03T15:10:27.671Z,10.74
2023-04-03T15:12:55.310Z,10.59
2023-04-03T15:15:24.336Z,10.53
2023-04-03T15:17:59.178Z,10.45
2023-04-03T15:20:34.194Z,10.53
2023-04-03T15:23:02.238Z,10.42
2023-04-03T15:25:33.424Z,10.29
2023-04-03T15:28:00.906Z,10.20
2023-04-03T15:30:27.986Z,10.15
2023-04-03T15:32:54.889Z,10.15
2023-04-03T15:35:22.208Z,10.11
2023-04-03T15:37:49.276Z,10.10
2023-04-03T15:40:16.712Z,10.05
2023-04-03T15:42:43.555Z,9.88
2023-04-03T15:45:10.906Z,9.70
2023-04-03T15:47:37.915Z,9.54
2023-04-03T15:50:07.798Z,9.54
2023-04-03T15:52:36.301Z,9.47
2023-04-03T15:55:04.281Z,9.46
2023-04-03T16:00:04.175Z,9.48
2023-04-03T16:02:31.185Z,9.44
2023-04-03T16:04:58.538Z,9.38
2023-04-03T16:07:25.295Z,9.41
2023-04-03T16:09:53.075Z,9.24
2023-04-03T16:12:19.988Z,9.18
2023-04-03T16:14:47.154Z,9.13
2023-04-03T16:17:14.094Z,9.09
2023-04-03T16:19:41.181Z,9.04
2023-04-03T16:22:08.392Z,8.91
2023-04-03T16:24:36.647Z,8.64
2023-04-03T16:27:03.503Z,8.47
2023-04-03T16:29:30.770Z,8.39
2023-04-03T16:31:59.287Z,8.24
2023-04-03T16:34:27.510Z,8.19
2023-04-03T16:36:54.412Z,8.17
2023-04-03T16:39:21.437Z,8.07
2023-04-03T16:41:48.291Z,7.95
2023-04-03T16:44:15.413Z,7.95
2023-04-03T16:46:42.221Z,7.91
2023-04-03T16:49:09.400Z,7.97
2023-04-03T16:51:36.254Z,7.99
2023-04-03T16:54:03.416Z,7.92
2023-04-03T16:56:30.386Z,7.85
2023-04-03T16:58:57.519Z,7.81
2023-04-03T17:01:24.443Z,7.73
2023-04-03T17:03:51.592Z,7.78
2023-04-03T17:06:21.240Z,7.69
2023-04-03T17:08:50.142Z,7.67
2023-04-03T17:11:18.227Z,7.57
2023-04-03T17:13:45.585Z,7.52
2023-04-03T17:16:15.759Z,7.34
2023-04-03T17:18:44.105Z,7.28
2023-04-03T17:21:12.321Z,7.26
2023-04-03T17:23:42.185Z,7.17
2023-04-03T17:26:09.771Z,7.15
2023-04-03T17:28:37.039Z,7.13
2023-04-03T17:31:03.953Z,7.06
2023-04-03T17:33:31.275Z,7.12
2023-04-03T17:35:59.446Z,7.12
2023-04-03T17:38:27.108Z,6.98
2023-04-03T17:40:58.091Z,6.96
2023-04-03T17:43:25.779Z,6.96
2023-04-03T17:45:52.779Z,6.86
2023-04-03T17:48:21.328Z,6.93
2023-04-03T17:50:48.118Z,6.73
2023-04-03T17:53:15.374Z,6.83
2023-04-03T17:55:42.228Z,6.79
2023-04-03T17:58:09.382Z,6.65
2023-04-03T18:00:37.239Z,6.64
2023-04-03T18:03:04.796Z,6.48
2023-04-03T18:05:31.853Z,6.53
2023-04-03T18:08:00.853Z,6.50
2023-04-03T18:10:30.546Z,6.58
2023-04-03T18:12:57.775Z,6.47
2023-04-03T18:15:25.908Z,6.38
2023-04-03T18:17:56.736Z,6.28
2023-04-03T18:20:24.323Z,6.32
2023-04-03T18:22:52.605Z,6.32
2023-04-03T18:25:19.834Z,6.39
2023-04-03T18:27:48.290Z,6.34
2023-04-03T18:30:17.601Z,6.19
2023-04-03T18:32:44.847Z,6.08
2023-04-03T18:35:11.894Z,6.01
2023-04-03T18:37:38.983Z,5.95
2023-04-03T18:40:06.481Z,5.91
2023-04-03T18:42:33.658Z,5.87
2023-04-03T18:45:02.202Z,5.66
2023-04-03T18:47:29.635Z,5.69
2023-04-03T18:49:56.929Z,5.63
2023-04-03T18:52:25.479Z,5.61
2023-04-03T18:54:52.385Z,5.71
2023-04-03T18:57:19.516Z,5.60
2023-04-03T18:59:46.326Z,5.46
2023-04-03T19:02:14.217Z,5.50
2023-04-03T19:04:41.355Z,5.49
2023-04-03T19:07:10.372Z,5.48
2023-04-03T19:09:38.675Z,5.50
2023-04-03T19:12:07.377Z,5.47
2023-04-03T19:14:34.383Z,5.46
2023-04-03T19:17:02.972Z,5.36
2023-04-03T19:19:31.207Z,5.20
2023-04-03T19:21:58.233Z,5.17
2023-04-03T19:24:26.074Z,5.20
2023-04-03T19:26:53.353Z,5.09
2023-04-03T19:29:20.152Z,5.02
2023-04-03T19:31:47.269Z,4.97
2023-04-03T19:34:14.135Z,4.94
2023-04-03T19:36:42.390Z,4.93
2023-04-03T19:39:09.224Z,4.97
2023-04-03T19:41:37.761Z,4.77
2023-04-03T19:44:08.440Z,4.77
2023-04-03T19:46:36.355Z,4.65
2023-04-03T19:49:03.868Z,4.40
2023-04-03T19:51:30.997Z,4.26
2023-04-03T19:53:57.819Z,4.36
2023-04-03T19:56:26.449Z,4.38
2023-04-03T19:58:56.855Z,4.28
2023-04-03T20:01:24.734Z,4.19
2023-04-03T20:03:51.894Z,4.18
2023-04-03T20:06:19.370Z,4.20
2023-04-03T20:08:46.371Z,4.11
2023-04-03T20:11:13.616Z,4.16
2023-04-03T20:13:40.522Z,4.13
2023-04-03T20:16:08.703Z,4.07
2023-04-03T20:18:36.027Z,4.15
2023-04-03T20:21:05.733Z,4.08
2023-04-03T20:23:33.294Z,3.92
2023-04-03T20:26:09.525Z,3.92
2023-04-03T20:28:38.517Z,3.80
2023-04-03T20:31:09.245Z,3.76
2023-04-03T20:33:37.225Z,3.68
2023-04-03T20:36:04.452Z,3.76
2023-04-03T20:38:31.256Z,3.76
2023-04-03T20:40:58.440Z,3.72
2023-04-03T20:43:25.411Z,3.78
2023-04-03T20:45:52.643Z,3.81
2023-04-03T20:48:19.765Z,3.80
2023-04-03T20:50:47.545Z,3.81
2023-04-03T20:53:17.963Z,3.81
2023-04-03T20:56:01.689Z,3.79
2023-04-03T20:58:35.500Z,3.85
2023-04-03T21:01:02.667Z,3.81
2023-04-03T21:03:32.661Z,3.83
2023-04-03T21:06:03.922Z,3.84
2023-04-03T21:09:08.533Z,3.85
2023-04-03T21:12:13.043Z,3.95
2023-04-03T21:15:17.536Z,3.88
2023-04-03T21:17:58.778Z,3.84
2023-04-03T21:20:25.435Z,3.78
2023-04-03T21:22:52.313Z,3.74
2023-04-03T21:25:18.975Z,3.75
2023-04-03T21:27:46.051Z,3.79
2023-04-03T21:30:13.270Z,3.76
2023-04-03T21:32:40.390Z,3.83
2023-04-03T21:35:07.625Z,3.88
2023-04-03T21:37:37.969Z,3.75
2023-04-03T21:40:05.151Z,3.73
2023-04-03T21:42:32.017Z,3.64
2023-04-03T21:44:58.622Z,3.69
2023-04-03T21:47:25.523Z,3.66
2023-04-03T21:49:52.426Z,3.66
2023-04-03T21:52:19.387Z,3.67
2023-04-03T21:54:46.057Z,3.60
2023-04-03T21:57:13.542Z,3.63
2023-04-03T21:59:40.347Z,3.58
2023-04-03T22:02:07.777Z,3.66
2023-04-03T22:04:34.546Z,3.67
2023-04-03T22:07:03.515Z,3.70
2023-04-03T22:09:30.132Z,3.78
2023-04-03T22:11:57.161Z,3.82
2023-04-03T22:14:23.824Z,3.73
2023-04-03T22:16:50.875Z,3.79
2023-04-03T22:19:17.490Z,3.79
2023-04-03T22:21:44.473Z,3.77
2023-04-03T22:24:11.255Z,3.82
2023-04-03T22:26:39.559Z,3.84
2023-04-03T22:29:06.207Z,3.79
2023-04-03T22:31:33.276Z,3.77
2023-04-03T22:34:04.114Z,3.66
2023-04-03T22:36:31.050Z,3.56
2023-04-03T22:38:57.727Z,3.51
2023-04-03T22:41:24.646Z,3.46
2023-04-03T22:43:51.365Z,3.42
2023-04-03T22:46:18.322Z,3.44
2023-04-03T22:48:47.694Z,3.35
2023-04-03T22:51:14.557Z,3.32
2023-04-03T22:53:41.327Z,3.30
2023-04-03T22:56:08.796Z,3.18
2023-04-03T22:58:35.568Z,3.15
2023-04-03T23:01:07.617Z,3.08
2023-04-03T23:03:35.445Z,3.09
2023-04-03T23:06:03.505Z,3.02
2023-04-03T23:08:30.843Z,2.96
2023-04-03T23:10:58.422Z,2.89
2023-04-03T23:13:25.408Z,2.90
2023-04-03T23:15:52.940Z,2.83
2023-04-03T23:18:19.541Z,2.74
2023-04-03T23:20:46.489Z,2.72
2023-04-03T23:23:13.110Z,2.70
2023-04-03T23:25:40.001Z,2.68
2023-04-03T23:28:06.705Z,2.65
2023-04-03T23:30:33.835Z,2.57
2023-04-03T23:33:00.932Z,2.57
2023-04-03T23:35:28.532Z,2.52
2023-04-03T23:37:55.257Z,2.52
2023-04-03T23:40:22.245Z,2.57
2023-04-03T23:42:48.856Z,2.65
2023-04-03T23:45:15.849Z,2.57
2023-04-03T23:47:42.566Z,2.53
2023-04-03T23:50:09.873Z,2.53
2023-04-03T23:52:36.803Z,2.55
2023-04-03T23:55:03.909Z,2.56
2023-04-03T23:57:30.565Z,2.48
2023-04-03T23:59:57.531Z,2.45
